sensor_id;sensor_type;location;lat;lon;timestamp;pressure;altitude;pressure_sealevel;temperature;humidity
79481;BME280;68944;48.262;14.208;2023-05-07T00:01:53;98279.22;;;16.92;55.60
79481;BME280;68944;48.262;14.208;2023-05-07T00:04:19;98288.56;;;16.95;55.63
79481;BME280;68944;48.262;14.208;2023-05-07T00:06:44;98289.34;;;16.90;56.02
79481;BME280;68944;48.262;14.208;2023-05-07T00:09:10;98288.81;;;16.88;55.83
79481;BME280;68944;48.262;14.208;2023-05-07T00:11:36;98294.47;;;16.92;55.97
79481;BME280;68944;48.262;14.208;2023-05-07T00:14:01;98279.72;;;16.89;55.91
79481;BME280;68944;48.262;14.208;2023-05-07T00:16:27;98289.91;;;16.98;55.68
79481;BME280;68944;48.262;14.208;2023-05-07T00:18:52;98291.78;;;16.97;55.73
79481;BME280;68944;48.262;14.208;2023-05-07T00:21:18;98293.13;;;16.94;55.81
79481;BME280;68944;48.262;14.208;2023-05-07T00:23:43;98301.41;;;16.93;56.39
79481;BME280;68944;48.262;14.208;2023-05-07T00:26:09;98305.41;;;16.85;57.15
79481;BME280;68944;48.262;14.208;2023-05-07T00:28:35;98304.03;;;16.77;57.40
79481;BME280;68944;48.262;14.208;2023-05-07T00:31:00;98303.44;;;16.59;58.05
79481;BME280;68944;48.262;14.208;2023-05-07T00:33:26;98304.75;;;16.57;57.44
79481;BME280;68944;48.262;14.208;2023-05-07T00:35:52;98313.81;;;16.56;57.60
79481;BME280;68944;48.262;14.208;2023-05-07T00:38:20;98312.00;;;16.62;57.40
79481;BME280;68944;48.262;14.208;2023-05-07T00:40:45;98258.91;;;16.37;57.04
79481;BME280;68944;48.262;14.208;2023-05-07T00:43:11;98310.44;;;16.71;57.10
79481;BME280;68944;48.262;14.208;2023-05-07T00:45:38;98299.91;;;16.54;57.67
79481;BME280;68944;48.262;14.208;2023-05-07T00:48:04;98301.09;;;16.30;58.45
79481;BME280;68944;48.262;14.208;2023-05-07T00:50:30;98312.56;;;16.25;58.00
79481;BME280;68944;48.262;14.208;2023-05-07T00:52:56;98314.25;;;16.37;57.51
79481;BME280;68944;48.262;14.208;2023-05-07T00:55:23;98295.25;;;16.33;57.61
79481;BME280;68944;48.262;14.208;2023-05-07T00:57:50;98307.84;;;16.38;58.14
79481;BME280;68944;48.262;14.208;2023-05-07T01:00:16;98296.53;;;16.25;57.83
79481;BME280;68944;48.262;14.208;2023-05-07T01:02:42;98294.91;;;16.19;57.69
79481;BME280;68944;48.262;14.208;2023-05-07T01:05:09;98295.47;;;16.26;57.94
79481;BME280;68944;48.262;14.208;2023-05-07T01:07:37;98312.69;;;16.41;57.55
79481;BME280;68944;48.262;14.208;2023-05-07T01:10:04;98317.50;;;16.39;57.63
79481;BME280;68944;48.262;14.208;2023-05-07T01:12:30;98316.13;;;16.36;57.38
79481;BME280;68944;48.262;14.208;2023-05-07T01:14:57;98321.72;;;16.35;57.63
79481;BME280;68944;48.262;14.208;2023-05-07T01:17:23;98318.25;;;16.34;57.48
79481;BME280;68944;48.262;14.208;2023-05-07T01:19:49;98317.44;;;16.34;57.76
79481;BME280;68944;48.262;14.208;2023-05-07T01:22:33;98322.25;;;16.32;57.69
79481;BME280;68944;48.262;14.208;2023-05-07T01:25:00;98318.69;;;16.21;57.30
79481;BME280;68944;48.262;14.208;2023-05-07T01:27:28;98314.69;;;16.23;57.77
79481;BME280;68944;48.262;14.208;2023-05-07T01:29:54;98325.38;;;16.18;57.55
79481;BME280;68944;48.262;14.208;2023-05-07T01:32:29;98314.63;;;16.13;57.98
79481;BME280;68944;48.262;14.208;2023-05-07T01:34:57;98310.34;;;16.07;57.90
79481;BME280;68944;48.262;14.208;2023-05-07T01:37:24;98313.25;;;16.05;58.04
79481;BME280;68944;48.262;14.208;2023-05-07T01:39:50;98317.19;;;16.02;58.77
79481;BME280;68944;48.262;14.208;2023-05-07T01:42:16;98319.31;;;16.00;59.11
79481;BME280;68944;48.262;14.208;2023-05-07T01:44:42;98317.19;;;16.02;58.90
79481;BME280;68944;48.262;14.208;2023-05-07T01:47:08;98317.19;;;16.02;59.16
79481;BME280;68944;48.262;14.208;2023-05-07T01:49:34;98309.94;;;15.98;58.79
79481;BME280;68944;48.262;14.208;2023-05-07T01:52:00;98314.53;;;16.02;58.81
79481;BME280;68944;48.262;14.208;2023-05-07T01:54:26;98303.00;;;15.97;58.77
79481;BME280;68944;48.262;14.208;2023-05-07T01:56:56;98311.56;;;15.99;58.67
79481;BME280;68944;48.262;14.208;2023-05-07T01:59:21;98311.53;;;15.93;58.56
79481;BME280;68944;48.262;14.208;2023-05-07T02:01:47;98317.94;;;15.92;58.95
79481;BME280;68944;48.262;14.208;2023-05-07T02:04:12;98299.94;;;15.83;58.86
79481;BME280;68944;48.262;14.208;2023-05-07T02:06:38;98309.06;;;15.87;58.86
79481;BME280;68944;48.262;14.208;2023-05-07T02:09:05;98299.44;;;15.86;59.21
79481;BME280;68944;48.262;14.208;2023-05-07T02:11:31;98294.06;;;15.80;59.12
79481;BME280;68944;48.262;14.208;2023-05-07T02:13:56;98286.81;;;15.76;59.27
79481;BME280;68944;48.262;14.208;2023-05-07T02:16:22;98304.81;;;15.91;58.91
79481;BME280;68944;48.262;14.208;2023-05-07T02:18:49;98310.72;;;15.93;59.04
79481;BME280;68944;48.262;14.208;2023-05-07T02:21:15;98302.13;;;15.86;58.88
79481;BME280;68944;48.262;14.208;2023-05-07T02:23:40;98302.41;;;15.89;59.03
79481;BME280;68944;48.262;14.208;2023-05-07T02:26:06;98293.53;;;15.84;58.78
79481;BME280;68944;48.262;14.208;2023-05-07T02:28:32;98305.63;;;15.91;58.83
79481;BME280;68944;48.262;14.208;2023-05-07T02:31:05;98312.28;;;15.89;58.64
79481;BME280;68944;48.262;14.208;2023-05-07T02:33:31;98306.94;;;15.89;58.88
79481;BME280;68944;48.262;14.208;2023-05-07T02:36:06;98310.97;;;15.91;58.77
79481;BME280;68944;48.262;14.208;2023-05-07T02:38:34;98317.06;;;15.87;58.71
79481;BME280;68944;48.262;14.208;2023-05-07T02:40:59;98304.47;;;15.82;58.96
79481;BME280;68944;48.262;14.208;2023-05-07T02:43:25;98316.06;;;15.93;58.86
79481;BME280;68944;48.262;14.208;2023-05-07T02:46:06;98309.34;;;15.90;59.06
79481;BME280;68944;48.262;14.208;2023-05-07T02:48:35;98308.56;;;15.90;58.74
79481;BME280;68944;48.262;14.208;2023-05-07T02:51:01;98310.94;;;15.86;58.73
79481;BME280;68944;48.262;14.208;2023-05-07T02:53:27;98292.16;;;15.76;58.63
79481;BME280;68944;48.262;14.208;2023-05-07T02:55:58;98296.69;;;15.75;58.74
79481;BME280;68944;48.262;14.208;2023-05-07T02:58:24;98317.25;;;15.75;59.13
79481;BME280;68944;48.262;14.208;2023-05-07T03:00:50;98302.44;;;15.62;58.89
79481;BME280;68944;48.262;14.208;2023-05-07T03:03:25;98306.69;;;15.57;59.39
79481;BME280;68944;48.262;14.208;2023-05-07T03:05:50;98308.59;;;15.62;58.96
79481;BME280;68944;48.262;14.208;2023-05-07T03:08:17;98318.75;;;15.65;59.74
79481;BME280;68944;48.262;14.208;2023-05-07T03:10:42;98320.59;;;15.60;59.40
79481;BME280;68944;48.262;14.208;2023-05-07T03:13:08;98315.81;;;15.62;59.92
79481;BME280;68944;48.262;14.208;2023-05-07T03:15:33;98319.22;;;15.57;59.82
79481;BME280;68944;48.262;14.208;2023-05-07T03:17:59;98325.94;;;15.60;59.96
79481;BME280;68944;48.262;14.208;2023-05-07T03:20:24;98327.53;;;15.61;60.01
79481;BME280;68944;48.262;14.208;2023-05-07T03:22:50;98334.50;;;15.62;60.18
79481;BME280;68944;48.262;14.208;2023-05-07T03:25:15;98327.53;;;15.61;60.13
79481;BME280;68944;48.262;14.208;2023-05-07T03:27:41;98313.88;;;15.57;59.79
79481;BME280;68944;48.262;14.208;2023-05-07T03:30:10;98326.22;;;15.63;60.01
79481;BME280;68944;48.262;14.208;2023-05-07T03:32:36;98316.91;;;15.66;59.98
79481;BME280;68944;48.262;14.208;2023-05-07T03:35:05;98317.41;;;15.63;60.36
79481;BME280;68944;48.262;14.208;2023-05-07T03:37:31;98307.19;;;15.54;60.12
79481;BME280;68944;48.262;14.208;2023-05-07T03:39:56;98326.53;;;15.67;59.92
79481;BME280;68944;48.262;14.208;2023-05-07T03:42:23;98315.75;;;15.56;60.06
79481;BME280;68944;48.262;14.208;2023-05-07T03:44:50;98308.81;;;15.55;60.07
79481;BME280;68944;48.262;14.208;2023-05-07T03:47:16;98322.50;;;15.64;60.60
79481;BME280;68944;48.262;14.208;2023-05-07T03:49:42;98327.03;;;15.64;60.27
79481;BME280;68944;48.262;14.208;2023-05-07T03:52:08;98329.97;;;15.62;60.22
79481;BME280;68944;48.262;14.208;2023-05-07T03:54:33;98335.59;;;15.66;60.05
79481;BME280;68944;48.262;14.208;2023-05-07T03:56:59;98303.28;;;15.34;59.93
79481;BME280;68944;48.262;14.208;2023-05-07T03:59:25;98346.22;;;15.61;60.16
79481;BME280;68944;48.262;14.208;2023-05-07T04:01:50;98353.44;;;15.60;60.23
79481;BME280;68944;48.262;14.208;2023-05-07T04:04:18;98355.84;;;15.62;60.44
79481;BME280;68944;48.262;14.208;2023-05-07T04:06:43;98354.56;;;15.64;60.65
79481;BME280;68944;48.262;14.208;2023-05-07T04:09:10;98353.78;;;15.69;60.68
79481;BME280;68944;48.262;14.208;2023-05-07T04:11:37;98358.59;;;15.72;60.62
79481;BME280;68944;48.262;14.208;2023-05-07T04:14:03;98365.03;;;15.71;60.83
79481;BME280;68944;48.262;14.208;2023-05-07T04:16:29;98361.84;;;15.74;60.84
79481;BME280;68944;48.262;14.208;2023-05-07T04:18:54;98351.94;;;15.69;61.13
79481;BME280;68944;48.262;14.208;2023-05-07T04:21:20;98360.28;;;15.78;60.86
79481;BME280;68944;48.262;14.208;2023-05-07T04:23:48;98354.13;;;15.78;60.98
79481;BME280;68944;48.262;14.208;2023-05-07T04:26:14;98360.31;;;15.84;60.48
79481;BME280;68944;48.262;14.208;2023-05-07T04:28:42;98365.22;;;15.92;60.45
79481;BME280;68944;48.262;14.208;2023-05-07T04:31:08;98373.78;;;15.94;60.50
79481;BME280;68944;48.262;14.208;2023-05-07T04:33:35;98375.38;;;15.95;60.26
79481;BME280;68944;48.262;14.208;2023-05-07T04:36:02;98376.19;;;15.96;60.26
79481;BME280;68944;48.262;14.208;2023-05-07T04:38:30;98362.28;;;15.93;60.19
79481;BME280;68944;48.262;14.208;2023-05-07T04:41:02;98363.09;;;15.94;60.63
79481;BME280;68944;48.262;14.208;2023-05-07T04:43:28;98369.84;;;16.02;60.13
79481;BME280;68944;48.262;14.208;2023-05-07T04:45:54;98368.78;;;16.03;60.54
79481;BME280;68944;48.262;14.208;2023-05-07T04:48:23;98377.63;;;16.03;60.25
79481;BME280;68944;48.262;14.208;2023-05-07T04:50:50;98380.31;;;16.03;60.19
79481;BME280;68944;48.262;14.208;2023-05-07T04:53:17;98386.19;;;16.06;60.59
79481;BME280;68944;48.262;14.208;2023-05-07T04:55:43;98385.16;;;16.07;60.58
79481;BME280;68944;48.262;14.208;2023-05-07T04:58:09;98383.53;;;16.06;60.43
79481;BME280;68944;48.262;14.208;2023-05-07T05:00:36;98389.97;;;16.10;60.43
79481;BME280;68944;48.262;14.208;2023-05-07T05:03:05;98385.97;;;16.12;60.84
79481;BME280;68944;48.262;14.208;2023-05-07T05:05:31;98399.28;;;16.07;61.29
79481;BME280;68944;48.262;14.208;2023-05-07T05:07:58;98396.06;;;16.05;61.10
79481;BME280;68944;48.262;14.208;2023-05-07T05:10:24;98378.66;;;16.02;61.33
79481;BME280;68944;48.262;14.208;2023-05-07T05:12:51;98389.81;;;16.22;61.21
79481;BME280;68944;48.262;14.208;2023-05-07T05:15:16;98382.34;;;16.24;60.85
79481;BME280;68944;48.262;14.208;2023-05-07T05:17:42;98390.63;;;16.27;61.17
79481;BME280;68944;48.262;14.208;2023-05-07T05:20:08;98405.41;;;16.35;61.26
79481;BME280;68944;48.262;14.208;2023-05-07T05:22:36;98405.72;;;16.44;61.29
79481;BME280;68944;48.262;14.208;2023-05-07T05:25:02;98408.44;;;16.49;60.85
79481;BME280;68944;48.262;14.208;2023-05-07T05:27:28;98420.34;;;16.64;60.45
79481;BME280;68944;48.262;14.208;2023-05-07T05:29:54;98418.75;;;16.68;60.81
79481;BME280;68944;48.262;14.208;2023-05-07T05:32:20;98407.53;;;16.71;60.88
79481;BME280;68944;48.262;14.208;2023-05-07T05:34:45;98397.34;;;16.68;60.81
79481;BME280;68944;48.262;14.208;2023-05-07T05:37:11;98413.97;;;16.76;60.64
79481;BME280;68944;48.262;14.208;2023-05-07T05:39:37;98409.72;;;16.80;60.61
79481;BME280;68944;48.262;14.208;2023-05-07T05:42:03;98412.44;;;16.90;60.62
79481;BME280;68944;48.262;14.208;2023-05-07T05:44:31;98396.09;;;16.87;60.49
79481;BME280;68944;48.262;14.208;2023-05-07T05:46:57;98398.81;;;16.92;60.46
79481;BME280;68944;48.262;14.208;2023-05-07T05:49:25;98399.41;;;16.99;60.51
79481;BME280;68944;48.262;14.208;2023-05-07T05:51:51;98408.53;;;17.09;60.66
79481;BME280;68944;48.262;14.208;2023-05-07T05:54:17;98397.00;;;17.03;60.61
79481;BME280;68944;48.262;14.208;2023-05-07T05:56:43;98398.69;;;17.14;60.52
79481;BME280;68944;48.262;14.208;2023-05-07T05:59:09;98410.22;;;17.25;60.51
79481;BME280;68944;48.262;14.208;2023-05-07T06:01:36;98408.38;;;17.31;60.70
79481;BME280;68944;48.262;14.208;2023-05-07T06:04:03;98402.50;;;17.34;60.21
79481;BME280;68944;48.262;14.208;2023-05-07T06:06:29;98397.69;;;17.31;59.99
79481;BME280;68944;48.262;14.208;2023-05-07T06:08:54;98390.44;;;17.37;60.14
79481;BME280;68944;48.262;14.208;2023-05-07T06:11:25;98395.31;;;17.45;59.48
79481;BME280;68944;48.262;14.208;2023-05-07T06:13:51;98383.78;;;17.39;59.49
79481;BME280;68944;48.262;14.208;2023-05-07T06:16:17;98395.59;;;17.49;59.29
79481;BME280;68944;48.262;14.208;2023-05-07T06:18:43;98399.34;;;17.53;59.78
79481;BME280;68944;48.262;14.208;2023-05-07T06:21:13;98402.03;;;17.58;59.30
79481;BME280;68944;48.262;14.208;2023-05-07T06:23:38;98400.19;;;17.64;59.32
79481;BME280;68944;48.262;14.208;2023-05-07T06:26:06;98395.88;;;17.58;59.15
79481;BME280;68944;48.262;14.208;2023-05-07T06:28:37;98405.28;;;17.71;58.89
79481;BME280;68944;48.262;14.208;2023-05-07T06:31:31;98405.28;;;17.71;59.00
79481;BME280;68944;48.262;14.208;2023-05-07T06:34:05;98398.56;;;17.63;58.83
79481;BME280;68944;48.262;14.208;2023-05-07T06:36:35;98405.28;;;17.66;59.04
79481;BME280;68944;48.262;14.208;2023-05-07T06:39:06;98411.72;;;17.75;59.02
79481;BME280;68944;48.262;14.208;2023-05-07T06:41:32;98406.91;;;17.77;59.07
79481;BME280;68944;48.262;14.208;2023-05-07T06:44:04;98405.31;;;17.87;58.56
79481;BME280;68944;48.262;14.208;2023-05-07T06:46:50;98406.38;;;17.85;58.99
79481;BME280;68944;48.262;14.208;2023-05-07T06:49:16;98406.91;;;17.93;58.81
79481;BME280;68944;48.262;14.208;2023-05-07T06:51:42;98415.00;;;18.03;58.69
79481;BME280;68944;48.262;14.208;2023-05-07T06:54:07;98429.47;;;18.18;58.18
79481;BME280;68944;48.262;14.208;2023-05-07T06:56:35;98422.78;;;18.21;58.16
79481;BME280;68944;48.262;14.208;2023-05-07T06:59:03;98430.31;;;18.29;58.04
79481;BME280;68944;48.262;14.208;2023-05-07T07:01:33;98418.78;;;18.28;57.98
79481;BME280;68944;48.262;14.208;2023-05-07T07:04:00;98437.00;;;18.42;57.80
79481;BME280;68944;48.262;14.208;2023-05-07T07:06:27;98410.19;;;18.37;57.46
79481;BME280;68944;48.262;14.208;2023-05-07T07:08:53;98422.50;;;18.48;57.27
79481;BME280;68944;48.262;14.208;2023-05-07T07:11:19;98430.28;;;18.55;57.49
79481;BME280;68944;48.262;14.208;2023-05-07T07:13:44;98426.00;;;18.59;57.24
79481;BME280;68944;48.262;14.208;2023-05-07T07:16:10;98423.56;;;18.63;57.40
79481;BME280;68944;48.262;14.208;2023-05-07T07:18:36;98431.06;;;18.71;57.18
79481;BME280;68944;48.262;14.208;2023-05-07T07:21:03;98428.09;;;18.78;56.89
79481;BME280;68944;48.262;14.208;2023-05-07T07:23:29;98421.38;;;18.86;57.02
79481;BME280;68944;48.262;14.208;2023-05-07T07:25:55;98428.63;;;18.85;56.28
79481;BME280;68944;48.262;14.208;2023-05-07T07:28:21;98425.66;;;18.92;56.36
79481;BME280;68944;48.262;14.208;2023-05-07T07:30:47;98422.16;;;18.97;56.43
79481;BME280;68944;48.262;14.208;2023-05-07T07:33:14;98429.97;;;18.98;56.56
79481;BME280;68944;48.262;14.208;2023-05-07T07:35:40;98408.72;;;18.97;56.55
79481;BME280;68944;48.262;14.208;2023-05-07T07:38:06;98396.66;;;18.99;56.48
79481;BME280;68944;48.262;14.208;2023-05-07T07:40:34;98406.56;;;19.09;56.02
79481;BME280;68944;48.262;14.208;2023-05-07T07:43:00;98403.34;;;19.07;56.18
79481;BME280;68944;48.262;14.208;2023-05-07T07:45:27;98420.78;;;19.20;56.31
79481;BME280;68944;48.262;14.208;2023-05-07T07:47:53;98418.31;;;19.29;56.22
79481;BME280;68944;48.262;14.208;2023-05-07T07:50:19;98408.38;;;19.35;55.94
79481;BME280;68944;48.262;14.208;2023-05-07T07:52:45;98406.72;;;19.44;55.58
79481;BME280;68944;48.262;14.208;2023-05-07T07:55:14;98409.06;;;19.57;55.51
79481;BME280;68944;48.262;14.208;2023-05-07T07:57:43;98411.47;;;19.63;55.17
79481;BME280;68944;48.262;14.208;2023-05-07T08:00:09;98414.06;;;19.74;55.08
79481;BME280;68944;48.262;14.208;2023-05-07T08:02:42;98409.78;;;19.73;55.25
79481;BME280;68944;48.262;14.208;2023-05-07T08:05:08;98407.56;;;19.80;54.67
79481;BME280;68944;48.262;14.208;2023-05-07T08:07:34;98415.59;;;19.85;54.51
79481;BME280;68944;48.262;14.208;2023-05-07T08:10:00;98374.09;;;19.62;54.05
79481;BME280;68944;48.262;14.208;2023-05-07T08:12:26;98429.53;;;19.93;53.54
79481;BME280;68944;48.262;14.208;2023-05-07T08:14:52;98424.72;;;19.89;53.50
79481;BME280;68944;48.262;14.208;2023-05-07T08:17:18;98420.69;;;19.87;53.59
79481;BME280;68944;48.262;14.208;2023-05-07T08:19:45;98428.16;;;20.00;53.80
79481;BME280;68944;48.262;14.208;2023-05-07T08:22:12;98419.50;;;20.04;53.41
79481;BME280;68944;48.262;14.208;2023-05-07T08:24:38;98417.41;;;20.00;53.69
79481;BME280;68944;48.262;14.208;2023-05-07T08:27:04;98417.34;;;20.06;53.56
79481;BME280;68944;48.262;14.208;2023-05-07T08:29:30;98412.78;;;20.11;53.78
79481;BME280;68944;48.262;14.208;2023-05-07T08:31:56;98428.78;;;20.27;53.53
79481;BME280;68944;48.262;14.208;2023-05-07T08:34:22;98423.06;;;20.34;53.60
79481;BME280;68944;48.262;14.208;2023-05-07T08:36:49;98427.53;;;20.49;52.98
79481;BME280;68944;48.262;14.208;2023-05-07T08:39:18;98430.44;;;20.53;52.95
79481;BME280;68944;48.262;14.208;2023-05-07T08:41:48;98423.94;;;20.59;52.59
79481;BME280;68944;48.262;14.208;2023-05-07T08:44:14;98416.78;;;20.49;51.57
79481;BME280;68944;48.262;14.208;2023-05-07T08:46:42;98421.56;;;20.52;52.70
79481;BME280;68944;48.262;14.208;2023-05-07T08:49:09;98415.63;;;20.55;52.31
79481;BME280;68944;48.262;14.208;2023-05-07T08:51:35;98424.66;;;20.70;51.36
79481;BME280;68944;48.262;14.208;2023-05-07T08:56:36;98432.84;;;20.84;51.75
79481;BME280;68944;48.262;14.208;2023-05-07T09:07:15;98428.56;;;21.08;51.61
79481;BME280;68944;48.262;14.208;2023-05-07T09:12:13;98436.94;;;21.31;51.29
79481;BME280;68944;48.262;14.208;2023-05-07T09:14:40;98433.16;;;21.32;50.96
79481;BME280;68944;48.262;14.208;2023-05-07T09:17:05;98434.47;;;21.34;50.51
79481;BME280;68944;48.262;14.208;2023-05-07T09:19:31;98428.28;;;21.34;50.38
79481;BME280;68944;48.262;14.208;2023-05-07T09:22:03;98430.09;;;21.39;50.60
79481;BME280;68944;48.262;14.208;2023-05-07T09:24:37;98427.66;;;21.42;50.33
79481;BME280;68944;48.262;14.208;2023-05-07T09:27:06;98426.25;;;21.45;50.05
79481;BME280;68944;48.262;14.208;2023-05-07T09:29:33;98423.19;;;21.52;50.12
79481;BME280;68944;48.262;14.208;2023-05-07T09:32:06;98422.78;;;21.64;50.57
79481;BME280;68944;48.262;14.208;2023-05-07T09:34:33;98417.63;;;21.67;49.60
79481;BME280;68944;48.262;14.208;2023-05-07T09:37:03;98415.34;;;21.75;50.13
79481;BME280;68944;48.262;14.208;2023-05-07T09:39:47;98415.06;;;21.76;50.14
79481;BME280;68944;48.262;14.208;2023-05-07T09:42:16;98419.06;;;21.79;50.37
79481;BME280;68944;48.262;14.208;2023-05-07T09:44:46;98415.44;;;21.89;49.33
79481;BME280;68944;48.262;14.208;2023-05-07T09:47:19;98419.06;;;21.98;49.62
79481;BME280;68944;48.262;14.208;2023-05-07T09:49:48;98415.34;;;22.13;49.78
79481;BME280;68944;48.262;14.208;2023-05-07T09:52:16;98419.63;;;22.14;48.98
79481;BME280;68944;48.262;14.208;2023-05-07T09:54:48;98399.84;;;22.19;49.50
79481;BME280;68944;48.262;14.208;2023-05-07T09:57:16;98416.50;;;22.41;48.02
79481;BME280;68944;48.262;14.208;2023-05-07T09:59:49;98412.63;;;22.47;48.10
79481;BME280;68944;48.262;14.208;2023-05-07T10:02:19;98405.44;;;22.56;48.76
79481;BME280;68944;48.262;14.208;2023-05-07T10:04:48;98401.97;;;22.70;47.95
79481;BME280;68944;48.262;14.208;2023-05-07T10:07:17;98403.38;;;22.81;48.35
79481;BME280;68944;48.262;14.208;2023-05-07T10:09:44;98404.19;;;22.96;48.88
79481;BME280;68944;48.262;14.208;2023-05-07T10:12:19;98412.81;;;23.12;48.43
79481;BME280;68944;48.262;14.208;2023-05-07T10:14:47;98410.69;;;23.23;47.76
79481;BME280;68944;48.262;14.208;2023-05-07T10:17:16;98412.59;;;23.37;47.75
79481;BME280;68944;48.262;14.208;2023-05-07T10:19:44;98411.16;;;23.39;47.45
79481;BME280;68944;48.262;14.208;2023-05-07T10:22:11;98411.66;;;23.56;47.02
79481;BME280;68944;48.262;14.208;2023-05-07T10:24:42;98403.22;;;23.71;47.19
79481;BME280;68944;48.262;14.208;2023-05-07T10:27:15;98403.47;;;23.84;47.55
79481;BME280;68944;48.262;14.208;2023-05-07T10:32:51;98396.34;;;24.11;46.80
79481;BME280;68944;48.262;14.208;2023-05-07T10:35:30;98388.44;;;24.24;45.23
79481;BME280;68944;48.262;14.208;2023-05-07T10:37:59;98387.13;;;24.35;44.72
79481;BME280;68944;48.262;14.208;2023-05-07T10:40:27;98378.19;;;24.35;44.87
79481;BME280;68944;48.262;14.208;2023-05-07T10:43:00;98379.34;;;24.42;45.15
79481;BME280;68944;48.262;14.208;2023-05-07T10:45:31;98379.56;;;24.55;45.42
79481;BME280;68944;48.262;14.208;2023-05-07T10:48:13;98380.75;;;24.72;44.99
79481;BME280;68944;48.262;14.208;2023-05-07T10:50:41;98372.03;;;24.84;43.86
79481;BME280;68944;48.262;14.208;2023-05-07T10:55:49;98382.50;;;25.08;43.92
79481;BME280;68944;48.262;14.208;2023-05-07T10:58:26;98380.44;;;25.23;42.76
79481;BME280;68944;48.262;14.208;2023-05-07T11:01:01;98375.19;;;25.36;42.94
79481;BME280;68944;48.262;14.208;2023-05-07T11:03:33;98372.81;;;25.52;42.94
79481;BME280;68944;48.262;14.208;2023-05-07T11:06:13;98375.25;;;25.71;42.93
79481;BME280;68944;48.262;14.208;2023-05-07T11:08:57;98370.78;;;25.75;42.21
79481;BME280;68944;48.262;14.208;2023-05-07T11:11:47;98368.34;;;25.65;41.38
79481;BME280;68944;48.262;14.208;2023-05-07T11:17:11;98373.44;;;26.02;41.70
79481;BME280;68944;48.262;14.208;2023-05-07T11:19:54;98366.88;;;26.12;41.31
79481;BME280;68944;48.262;14.208;2023-05-07T11:22:47;98373.53;;;26.32;41.62
79481;BME280;68944;48.262;14.208;2023-05-07T11:25:33;98355.47;;;26.36;41.77
79481;BME280;68944;48.262;14.208;2023-05-07T11:28:07;98370.13;;;26.53;40.24
79481;BME280;68944;48.262;14.208;2023-05-07T11:30:38;98363.91;;;26.53;40.29
79481;BME280;68944;48.262;14.208;2023-05-07T11:33:08;98362.22;;;26.69;39.79
79481;BME280;68944;48.262;14.208;2023-05-07T11:35:34;98356.91;;;26.82;39.57
79481;BME280;68944;48.262;14.208;2023-05-07T11:38:00;98360.44;;;27.04;38.97
79481;BME280;68944;48.262;14.208;2023-05-07T11:40:27;98354.72;;;26.97;39.03
79481;BME280;68944;48.262;14.208;2023-05-07T11:42:53;98359.19;;;27.10;38.72
79481;BME280;68944;48.262;14.208;2023-05-07T11:45:25;98364.84;;;27.18;38.39
79481;BME280;68944;48.262;14.208;2023-05-07T11:47:51;98369.72;;;27.33;38.61
79481;BME280;68944;48.262;14.208;2023-05-07T11:50:16;98365.41;;;27.54;37.56
79481;BME280;68944;48.262;14.208;2023-05-07T11:52:50;98356.53;;;27.44;38.10
79481;BME280;68944;48.262;14.208;2023-05-07T11:55:18;98346.28;;;27.63;38.02
79481;BME280;68944;48.262;14.208;2023-05-07T11:57:44;98340.75;;;27.93;37.69
79481;BME280;68944;48.262;14.208;2023-05-07T12:00:10;98350.22;;;28.21;37.34
79481;BME280;68944;48.262;14.208;2023-05-07T12:02:38;98348.00;;;28.35;37.86
79481;BME280;68944;48.262;14.208;2023-05-07T12:05:04;98340.44;;;28.54;36.13
79481;BME280;68944;48.262;14.208;2023-05-07T12:07:30;98351.09;;;28.71;35.28
79481;BME280;68944;48.262;14.208;2023-05-07T12:09:57;98355.50;;;28.76;35.39
79481;BME280;68944;48.262;14.208;2023-05-07T12:12:22;98352.78;;;28.89;36.61
79481;BME280;68944;48.262;14.208;2023-05-07T12:14:48;98350.75;;;28.98;34.55
79481;BME280;68944;48.262;14.208;2023-05-07T12:17:14;98340.19;;;29.09;34.45
79481;BME280;68944;48.262;14.208;2023-05-07T12:19:41;98359.94;;;29.18;35.09
79481;BME280;68944;48.262;14.208;2023-05-07T12:22:08;98353.66;;;29.18;34.51
79481;BME280;68944;48.262;14.208;2023-05-07T12:24:46;98358.56;;;29.00;34.16
79481;BME280;68944;48.262;14.208;2023-05-07T12:27:13;98356.53;;;28.84;34.79
79481;BME280;68944;48.262;14.208;2023-05-07T12:29:39;98346.06;;;29.11;35.53
79481;BME280;68944;48.262;14.208;2023-05-07T12:32:06;98347.53;;;29.21;35.20
79481;BME280;68944;48.262;14.208;2023-05-07T12:34:32;98351.09;;;29.38;35.16
79481;BME280;68944;48.262;14.208;2023-05-07T12:37:01;98340.00;;;29.59;35.24
79481;BME280;68944;48.262;14.208;2023-05-07T12:39:27;98341.31;;;29.78;34.79
79481;BME280;68944;48.262;14.208;2023-05-07T12:41:57;98343.19;;;29.61;34.64
79481;BME280;68944;48.262;14.208;2023-05-07T12:44:30;98343.91;;;29.58;34.46
79481;BME280;68944;48.262;14.208;2023-05-07T12:46:56;98333.78;;;29.87;34.79
79481;BME280;68944;48.262;14.208;2023-05-07T12:49:23;98337.63;;;29.86;34.66
79481;BME280;68944;48.262;14.208;2023-05-07T12:51:49;98338.84;;;29.73;34.09
79481;BME280;68944;48.262;14.208;2023-05-07T12:54:35;98330.06;;;29.51;34.64
79481;BME280;68944;48.262;14.208;2023-05-07T12:57:04;98337.91;;;29.81;34.81
79481;BME280;68944;48.262;14.208;2023-05-07T13:01:57;98329.38;;;29.99;34.71
79481;BME280;68944;48.262;14.208;2023-05-07T13:04:24;98331.47;;;29.90;33.95
79481;BME280;68944;48.262;14.208;2023-05-07T13:06:50;98329.25;;;29.50;34.41
79481;BME280;68944;48.262;14.208;2023-05-07T13:09:15;98333.97;;;29.37;35.12
79481;BME280;68944;48.262;14.208;2023-05-07T13:11:41;98314.72;;;28.92;35.51
79481;BME280;68944;48.262;14.208;2023-05-07T13:14:06;98317.16;;;28.56;35.54
79481;BME280;68944;48.262;14.208;2023-05-07T13:16:32;98313.34;;;28.99;35.52
79481;BME280;68944;48.262;14.208;2023-05-07T13:18:58;98321.06;;;29.50;36.20